createdAt,value
2017-11-22T00:01:43.034Z,40.93
2017-11-22T00:04:11.893Z,42.23
2017-11-22T00:06:41.287Z,45.87
2017-11-22T00:09:10.183Z,42.33
2017-11-22T00:11:39.279Z,42.23
2017-11-22T00:14:08.143Z,40.50
2017-11-22T00:16:37.065Z,38.53
2017-11-22T00:19:06.778Z,38.80
2017-11-22T00:21:35.667Z,40.30
2017-11-22T00:24:04.756Z,34.73
2017-11-22T00:26:33.747Z,159.43
2017-11-22T00:29:02.897Z,38.67
2017-11-22T00:31:31.634Z,43.37
2017-11-22T00:34:00.527Z,43.00
2017-11-22T00:36:29.419Z,44.57
2017-11-22T00:38:58.891Z,40.43
2017-11-22T00:41:28.636Z,38.03
2017-11-22T00:43:57.638Z,42.93
2017-11-22T00:46:27.099Z,37.93
2017-11-22T00:48:55.919Z,39.00
2017-11-22T00:51:25.023Z,41.67
2017-11-22T00:53:54.081Z,35.40
2017-11-22T00:56:23.651Z,40.10
2017-11-22T00:58:52.923Z,42.70
2017-11-22T01:01:21.915Z,43.03
2017-11-22T01:03:50.903Z,40.17
2017-11-22T01:06:21.057Z,42.03
2017-11-22T01:08:50.737Z,38.93
2017-11-22T01:11:19.840Z,38.53
2017-11-22T01:13:48.803Z,36.77
2017-11-22T01:16:17.960Z,36.70
2017-11-22T01:18:46.914Z,44.40
2017-11-22T01:21:15.790Z,38.43
2017-11-22T01:23:44.695Z,39.90
2017-11-22T01:26:13.380Z,42.17
2017-11-22T01:28:42.630Z,39.30
2017-11-22T01:31:11.681Z,37.33
2017-11-22T01:33:40.589Z,42.43
2017-11-22T01:36:09.705Z,38.13
2017-11-22T01:38:38.857Z,35.27
2017-11-22T01:41:08.161Z,36.37
2017-11-22T01:43:38.834Z,29.53
2017-11-22T01:46:08.982Z,32.83
2017-11-22T01:48:39.060Z,32.10
2017-11-22T01:51:07.821Z,33.60
2017-11-22T01:53:36.655Z,29.93
2017-11-22T01:56:05.713Z,34.10
2017-11-22T01:58:34.395Z,30.27
2017-11-22T02:01:03.285Z,35.13
2017-11-22T02:03:32.171Z,32.20
2017-11-22T02:06:00.863Z,33.60
2017-11-22T02:08:29.648Z,33.33
2017-11-22T02:10:58.540Z,30.50
2017-11-22T02:13:27.230Z,28.20
2017-11-22T02:15:56.017Z,35.10
2017-11-22T02:18:25.109Z,31.67
2017-11-22T02:20:53.998Z,34.83
2017-11-22T02:23:22.685Z,29.17
2017-11-22T02:25:51.576Z,37.30
2017-11-22T02:28:20.363Z,34.50
2017-11-22T02:30:49.257Z,32.40
2017-11-22T02:33:18.966Z,34.43
2017-11-22T02:35:47.688Z,35.03
2017-11-22T02:38:16.439Z,45.43
2017-11-22T02:40:45.342Z,34.40
2017-11-22T02:43:15.050Z,32.70
2017-11-22T02:45:43.726Z,35.87
2017-11-22T02:48:13.420Z,32.27
2017-11-22T02:50:42.126Z,37.50
2017-11-22T02:53:11.016Z,37.70
2017-11-22T02:55:40.008Z,28.90
2017-11-22T02:58:08.904Z,41.13
2017-11-22T03:00:37.749Z,34.20
2017-11-22T03:03:06.636Z,37.03
2017-11-22T03:05:35.372Z,31.23
2017-11-22T03:08:04.886Z,34.07
2017-11-22T03:10:33.766Z,33.10
2017-11-22T03:13:03.476Z,30.90
2017-11-22T03:15:32.366Z,38.57
2017-11-22T03:18:01.259Z,36.37
2017-11-22T03:20:29.943Z,37.63
2017-11-22T03:22:58.628Z,40.37
2017-11-22T03:25:27.524Z,36.80
2017-11-22T03:27:56.313Z,38.00
2017-11-22T03:30:25.203Z,33.80
2017-11-22T03:32:54.092Z,38.07
2017-11-22T03:35:22.776Z,28.23
2017-11-22T03:37:51.563Z,33.33
2017-11-22T03:40:20.457Z,30.30
2017-11-22T03:42:49.962Z,28.70
2017-11-22T03:45:18.648Z,29.03
2017-11-22T03:47:48.152Z,34.80
2017-11-22T03:50:17.046Z,35.57
2017-11-22T03:52:51.466Z,27.27
2017-11-22T03:55:20.358Z,31.90
2017-11-22T03:57:49.248Z,32.37
2017-11-22T04:00:18.329Z,29.63
2017-11-22T04:02:58.635Z,29.47
2017-11-22T04:05:27.388Z,23.67
2017-11-22T04:07:56.176Z,27.83
2017-11-22T04:10:24.862Z,33.63
2017-11-22T04:12:53.654Z,31.03
2017-11-22T04:15:22.338Z,28.17
2017-11-22T04:17:55.120Z,28.13
2017-11-22T04:20:30.361Z,25.87
2017-11-22T04:22:59.255Z,28.20
2017-11-22T04:25:27.936Z,29.07
2017-11-22T04:27:56.631Z,29.93
2017-11-22T04:30:25.721Z,26.63
2017-11-22T04:32:55.226Z,37.70
2017-11-22T04:35:24.013Z,39.40
2017-11-22T04:37:52.699Z,26.60
2017-11-22T04:40:21.392Z,29.43
2017-11-22T04:42:50.277Z,27.07
2017-11-22T04:45:19.167Z,28.20
2017-11-22T04:47:48.059Z,26.60
2017-11-22T04:50:16.744Z,26.43
2017-11-22T04:52:45.635Z,30.57
2017-11-22T04:55:14.534Z,31.10
2017-11-22T04:57:43.419Z,33.70
2017-11-22T05:00:12.309Z,32.30
2017-11-22T05:02:41.813Z,32.10
2017-11-22T05:05:10.705Z,34.63
2017-11-22T05:07:39.596Z,39.40
2017-11-22T05:10:08.469Z,33.50
2017-11-22T05:12:37.363Z,33.13
2017-11-22T05:15:06.268Z,35.30
2017-11-22T05:17:35.160Z,42.90
2017-11-22T05:20:03.847Z,36.90
2017-11-22T05:26:03.888Z,34.53
2017-11-22T05:28:32.575Z,34.63
2017-11-22T05:31:01.260Z,40.20
2017-11-22T05:33:29.890Z,38.97
2017-11-22T05:35:58.635Z,41.20
2017-11-22T05:38:27.305Z,42.67
2017-11-22T05:40:56.221Z,31.87
2017-11-22T05:43:25.102Z,34.10
2017-11-22T05:45:53.899Z,33.93
2017-11-22T05:48:22.835Z,33.60
2017-11-22T05:50:51.549Z,40.90
2017-11-22T05:53:20.260Z,34.63
2017-11-22T05:55:49.974Z,40.53
2017-11-22T05:58:18.858Z,35.90
2017-11-22T06:00:54.312Z,38.10
2017-11-22T06:03:23.403Z,28.00
2017-11-22T06:05:52.089Z,32.20
2017-11-22T06:08:20.773Z,35.10
2017-11-22T06:10:49.868Z,36.30
2017-11-22T06:13:18.657Z,33.93
2017-11-22T06:15:47.444Z,36.40
2017-11-22T06:18:16.182Z,35.40
2017-11-22T06:20:44.918Z,30.07
2017-11-22T06:23:13.605Z,41.47
2017-11-22T06:25:42.394Z,36.73
2017-11-22T06:28:11.189Z,31.20
2017-11-22T06:30:46.736Z,49.73
2017-11-22T06:33:15.420Z,33.87
2017-11-22T06:35:44.101Z,38.33
2017-11-22T06:38:12.729Z,41.70
2017-11-22T06:40:41.479Z,47.33
2017-11-22T06:43:10.162Z,35.30
2017-11-22T06:45:39.053Z,44.13
2017-11-22T06:48:07.842Z,40.23
2017-11-22T06:50:36.770Z,43.40
2017-11-22T06:53:05.470Z,38.17
2017-11-22T06:55:34.205Z,38.73
2017-11-22T06:58:02.893Z,40.77
2017-11-22T07:00:31.790Z,68.63
2017-11-22T07:03:01.493Z,48.33
2017-11-22T07:05:30.413Z,45.20
2017-11-22T07:07:59.904Z,49.73
2017-11-22T07:10:28.578Z,50.13
2017-11-22T07:12:57.574Z,63.50
2017-11-22T07:15:26.378Z,58.13
2017-11-22T07:17:55.147Z,57.80
2017-11-22T07:20:24.114Z,45.77
2017-11-22T07:22:53.971Z,46.00
2017-11-22T07:25:22.822Z,60.97
2017-11-22T07:27:51.734Z,55.87
2017-11-22T07:30:20.424Z,54.87
2017-11-22T07:32:49.317Z,49.70
2017-11-22T07:35:17.961Z,63.37
2017-11-22T07:37:50.780Z,44.13
2017-11-22T07:40:19.467Z,49.17
2017-11-22T07:42:48.974Z,43.67
2017-11-22T07:45:17.864Z,53.43
2017-11-22T07:47:52.135Z,43.43
2017-11-22T07:50:20.867Z,46.97
2017-11-22T07:52:49.758Z,47.20
2017-11-22T07:55:18.444Z,55.43
2017-11-22T07:57:50.213Z,54.10
2017-11-22T08:00:32.817Z,46.23
2017-11-22T08:03:07.237Z,51.30
2017-11-22T08:05:36.032Z,54.60
2017-11-22T08:08:05.121Z,58.10
2017-11-22T08:10:33.853Z,55.73
2017-11-22T08:13:02.594Z,65.70
2017-11-22T08:15:31.286Z,52.93
2017-11-22T08:18:00.178Z,57.80
2017-11-22T08:20:28.973Z,67.10
2017-11-22T08:23:00.719Z,65.67
2017-11-22T08:25:29.916Z,56.90
2017-11-22T08:27:58.809Z,55.23
2017-11-22T08:30:27.708Z,54.60
2017-11-22T08:32:57.416Z,48.37
2017-11-22T08:35:26.303Z,57.50
2017-11-22T08:37:55.207Z,65.13
2017-11-22T08:40:23.981Z,72.13
2017-11-22T08:42:58.407Z,60.77
2017-11-22T08:45:27.100Z,53.00
2017-11-22T08:47:55.979Z,40.50
2017-11-22T08:50:24.873Z,55.63
2017-11-22T08:52:54.379Z,37.60
2017-11-22T08:55:28.799Z,54.60
2017-11-22T08:58:03.217Z,49.43
2017-11-22T09:00:31.900Z,43.87
2017-11-22T09:03:03.659Z,44.83
2017-11-22T09:08:33.599Z,67.47
2017-11-22T09:11:02.693Z,43.43
2017-11-22T09:13:31.486Z,46.67
2017-11-22T09:16:00.382Z,61.95
2017-11-22T09:18:38.898Z,51.33
2017-11-22T09:21:10.649Z,59.83
2017-11-22T09:23:39.536Z,53.00
2017-11-22T09:26:08.173Z,47.83
2017-11-22T09:28:36.912Z,60.03
2017-11-22T09:31:11.330Z,58.20
2017-11-22T09:33:40.037Z,45.80
2017-11-22T09:36:09.013Z,53.03
2017-11-22T09:38:38.004Z,49.90
2017-11-22T09:41:06.862Z,58.10
2017-11-22T09:43:36.401Z,60.20
2017-11-22T09:46:05.460Z,72.77
2017-11-22T09:48:34.186Z,65.50
2017-11-22T09:51:02.871Z,77.90
2017-11-22T09:53:31.763Z,73.53
2017-11-22T09:56:00.594Z,72.50
2017-11-22T09:58:29.337Z,63.03
2017-11-22T10:00:58.228Z,59.53
2017-11-22T10:03:26.915Z,65.03
2017-11-22T10:05:55.608Z,57.30
2017-11-22T10:08:24.490Z,68.00
2017-11-22T10:10:53.191Z,62.80
2017-11-22T10:13:22.091Z,62.23
2017-11-22T10:15:51.781Z,65.53
2017-11-22T10:18:35.416Z,70.47
2017-11-22T10:21:04.313Z,49.00
2017-11-22T10:23:33.203Z,58.07
2017-11-22T10:26:02.945Z,63.80
2017-11-22T10:28:31.802Z,60.40
2017-11-22T10:31:00.693Z,61.83
2017-11-22T10:33:35.117Z,53.30
2017-11-22T10:36:04.828Z,57.23
2017-11-22T10:38:33.717Z,60.57
2017-11-22T10:41:02.602Z,59.13
2017-11-22T10:43:31.699Z,62.67
2017-11-22T10:46:00.595Z,57.30
2017-11-22T10:48:29.483Z,47.43
2017-11-22T10:50:58.375Z,48.53
2017-11-22T10:53:27.261Z,54.93
2017-11-22T10:55:56.162Z,52.23
2017-11-22T10:58:25.605Z,47.00
2017-11-22T11:00:54.998Z,42.20
2017-11-22T11:03:24.568Z,53.90
2017-11-22T11:05:53.255Z,41.70
2017-11-22T11:08:22.149Z,49.83
2017-11-22T11:10:51.600Z,44.40
2017-11-22T11:13:23.327Z,38.40
2017-11-22T11:15:52.960Z,42.07
2017-11-22T11:18:22.416Z,41.23
2017-11-22T11:20:51.214Z,43.40
2017-11-22T11:23:19.995Z,30.97
2017-11-22T11:25:48.895Z,31.33
2017-11-22T11:28:17.726Z,50.63
2017-11-22T11:30:47.197Z,49.43
2017-11-22T11:33:16.033Z,35.17
2017-11-22T11:35:56.433Z,37.23
2017-11-22T11:38:26.144Z,33.33
2017-11-22T11:40:55.039Z,27.47
2017-11-22T11:43:24.947Z,29.63
2017-11-22T11:45:53.844Z,29.50
2017-11-22T11:48:24.693Z,27.30
2017-11-22T11:50:53.471Z,23.73
2017-11-22T11:53:23.584Z,26.90
2017-11-22T11:55:52.473Z,32.77
2017-11-22T11:58:21.372Z,29.47
2017-11-22T12:00:50.154Z,25.70
2017-11-22T12:03:18.946Z,27.57
2017-11-22T12:05:47.634Z,25.90
2017-11-22T12:08:16.427Z,28.47
2017-11-22T12:10:45.310Z,26.20
2017-11-22T12:13:14.104Z,25.20
2017-11-22T12:15:42.956Z,25.50
2017-11-22T12:18:12.498Z,23.77
2017-11-22T12:20:41.181Z,24.10
2017-11-22T12:23:16.010Z,22.90
2017-11-22T12:25:44.705Z,26.03
2017-11-22T12:28:13.586Z,24.87
2017-11-22T12:30:42.382Z,32.43
2017-11-22T12:33:11.063Z,13.20
2017-11-22T12:35:39.652Z,12.00
2017-11-22T12:38:08.539Z,18.90
2017-11-22T12:40:37.230Z,11.50
2017-11-22T12:43:06.011Z,16.37
2017-11-22T12:45:34.856Z,10.40
2017-11-22T12:48:03.592Z,12.20
2017-11-22T12:50:32.283Z,11.30
2017-11-22T12:53:01.165Z,9.83
2017-11-22T12:55:29.957Z,9.93
2017-11-22T12:58:00.689Z,16.13
2017-11-22T13:00:29.783Z,9.73
2017-11-22T13:02:59.498Z,7.70
2017-11-22T13:05:28.282Z,11.43
2017-11-22T13:07:57.175Z,14.63
2017-11-22T13:10:29.958Z,12.60
2017-11-22T13:12:58.660Z,9.90
2017-11-22T13:15:27.542Z,9.13
2017-11-22T13:17:56.425Z,10.77
2017-11-22T13:20:25.272Z,8.23
2017-11-22T13:22:54.926Z,8.83
2017-11-22T13:25:23.545Z,8.20
2017-11-22T13:27:52.212Z,9.50
2017-11-22T13:30:20.929Z,12.47
2017-11-22T13:32:49.671Z,12.03
2017-11-22T13:35:18.561Z,7.37
2017-11-22T13:37:47.612Z,11.90
2017-11-22T13:40:16.397Z,11.97
2017-11-22T13:42:46.797Z,11.80
2017-11-22T13:45:17.162Z,14.43
2017-11-22T13:47:45.847Z,17.00
2017-11-22T13:50:15.086Z,13.83
2017-11-22T13:52:44.178Z,28.23
2017-11-22T13:55:13.480Z,17.27
2017-11-22T13:57:42.696Z,15.30
2017-11-22T14:00:11.859Z,11.63
2017-11-22T14:02:40.936Z,11.77
2017-11-22T14:05:10.166Z,21.00
2017-11-22T14:07:39.149Z,18.23
2017-11-22T14:10:08.139Z,14.67
2017-11-22T14:12:37.249Z,27.00
2017-11-22T14:15:08.090Z,23.13
2017-11-22T14:17:37.592Z,17.90
2017-11-22T14:20:06.783Z,13.77
2017-11-22T14:22:35.890Z,16.03
2017-11-22T14:25:05.832Z,17.53
2017-11-22T14:27:35.039Z,11.00
2017-11-22T14:30:04.913Z,22.40
2017-11-22T14:32:34.958Z,19.60
2017-11-22T14:35:04.649Z,19.13
2017-11-22T14:37:33.841Z,11.80
2017-11-22T14:40:04.279Z,12.13
2017-11-22T14:42:35.110Z,10.50
2017-11-22T14:45:04.723Z,9.47
2017-11-22T14:47:34.602Z,22.10
2017-11-22T14:50:03.758Z,13.20
2017-11-22T14:52:33.101Z,10.70
2017-11-22T14:55:02.015Z,18.40
2017-11-22T14:57:30.913Z,24.75
2017-11-22T15:00:00.103Z,18.30
2017-11-22T15:02:29.507Z,17.10
2017-11-22T15:04:59.130Z,17.47
2017-11-22T15:07:28.212Z,19.20
2017-11-22T15:09:57.308Z,15.33
2017-11-22T15:12:26.487Z,18.73
2017-11-22T15:14:56.526Z,23.93
2017-11-22T15:17:25.690Z,17.43
2017-11-22T15:19:54.689Z,19.53
2017-11-22T15:22:23.709Z,24.40
2017-11-22T15:24:52.748Z,23.80
2017-11-22T15:27:21.699Z,23.30
2017-11-22T15:29:50.591Z,21.40
2017-11-22T15:32:19.581Z,20.40
2017-11-22T15:34:48.676Z,23.73
2017-11-22T15:37:19.187Z,21.80
2017-11-22T15:39:48.369Z,23.23
2017-11-22T15:42:17.533Z,28.53
2017-11-22T15:44:46.492Z,22.00
2017-11-22T15:47:16.623Z,22.20
2017-11-22T15:49:45.401Z,24.47
2017-11-22T15:52:14.496Z,25.87
2017-11-22T15:54:43.189Z,25.17
2017-11-22T15:57:12.075Z,25.83
2017-11-22T15:59:41.175Z,27.67
2017-11-22T16:02:10.261Z,25.47
2017-11-22T16:04:39.421Z,25.37
2017-11-22T16:07:08.252Z,27.03
2017-11-22T16:09:37.350Z,25.50
2017-11-22T16:12:07.271Z,33.73
2017-11-22T16:14:37.333Z,43.87
2017-11-22T16:17:06.267Z,32.73
2017-11-22T16:19:35.229Z,28.47
2017-11-22T16:22:04.684Z,42.23
2017-11-22T16:24:34.349Z,66.70
2017-11-22T16:27:03.194Z,39.30
2017-11-22T16:29:32.898Z,32.13
2017-11-22T16:32:03.143Z,31.67
2017-11-22T16:34:32.197Z,35.73
2017-11-22T16:37:01.092Z,30.10
2017-11-22T16:39:29.987Z,25.60
2017-11-22T16:41:58.859Z,36.23
2017-11-22T16:44:28.129Z,41.57
2017-11-22T16:46:56.924Z,43.97
2017-11-22T16:49:26.365Z,32.37
2017-11-22T16:51:55.671Z,37.63
2017-11-22T16:54:24.770Z,37.90
2017-11-22T16:56:53.856Z,36.27
2017-11-22T16:59:23.387Z,33.53
2017-11-22T17:01:52.257Z,35.27
2017-11-22T17:04:21.410Z,36.00
2017-11-22T17:06:50.421Z,32.20
2017-11-22T17:09:19.746Z,35.90
2017-11-22T17:11:48.637Z,29.77
2017-11-22T17:14:18.683Z,35.73
2017-11-22T17:16:47.652Z,40.07
2017-11-22T17:19:16.742Z,34.27
2017-11-22T17:21:45.845Z,36.33
2017-11-22T17:24:15.149Z,34.63
2017-11-22T17:26:44.612Z,34.53
2017-11-22T17:29:13.534Z,34.90
2017-11-22T17:31:42.437Z,35.43
2017-11-22T17:34:11.259Z,32.60
2017-11-22T17:36:43.893Z,38.17
2017-11-22T17:39:12.912Z,44.30
2017-11-22T17:41:42.293Z,36.07
2017-11-22T17:44:12.003Z,39.70
2017-11-22T17:46:42.030Z,38.80
2017-11-22T17:49:10.808Z,34.47
2017-11-22T17:51:39.698Z,42.03
2017-11-22T17:54:08.794Z,43.30
2017-11-22T17:56:37.879Z,39.57
2017-11-22T17:59:25.634Z,36.10
2017-11-22T18:01:55.801Z,29.10
2017-11-22T18:04:24.636Z,45.67
2017-11-22T18:06:53.841Z,33.43
2017-11-22T18:09:22.777Z,38.60
2017-11-22T18:11:51.835Z,36.47
2017-11-22T18:14:20.956Z,31.52
2017-11-22T18:16:49.905Z,37.53
2017-11-22T18:19:19.077Z,44.00
2017-11-22T18:21:47.812Z,29.83
2017-11-22T18:24:17.091Z,28.47
2017-11-22T18:26:45.983Z,31.30
2017-11-22T18:29:14.771Z,34.90
2017-11-22T18:31:43.925Z,32.63
2017-11-22T18:34:12.963Z,30.60
2017-11-22T18:36:42.070Z,30.70
2017-11-22T18:39:10.952Z,36.40
2017-11-22T18:41:40.049Z,38.97
2017-11-22T18:44:08.939Z,41.83
2017-11-22T18:46:37.932Z,34.13
2017-11-22T18:49:06.825Z,35.90
2017-11-22T18:51:35.722Z,32.00
2017-11-22T18:54:04.605Z,31.57
2017-11-22T18:56:33.578Z,34.00
2017-11-22T18:59:03.009Z,42.27
2017-11-22T19:01:32.427Z,33.03
2017-11-22T19:04:01.106Z,38.77
2017-11-22T19:06:30.025Z,41.17
2017-11-22T19:08:58.968Z,33.90
2017-11-22T19:11:27.823Z,56.50
2017-11-22T19:13:57.124Z,37.10
2017-11-22T19:16:26.590Z,37.80
2017-11-22T19:21:52.786Z,37.23
2017-11-22T19:24:21.462Z,36.00
2017-11-22T19:26:50.325Z,43.17
2017-11-22T19:29:26.990Z,37.40
2017-11-22T19:31:56.902Z,37.10
2017-11-22T19:34:26.604Z,41.67
2017-11-22T19:36:55.592Z,36.87
2017-11-22T19:39:24.470Z,39.90
2017-11-22T19:41:54.439Z,36.30
2017-11-22T19:44:24.000Z,40.40
2017-11-22T19:46:52.953Z,43.07
2017-11-22T19:49:22.067Z,43.50
2017-11-22T19:51:51.145Z,46.83
2017-11-22T19:54:20.077Z,43.20
2017-11-22T19:56:49.288Z,43.60
2017-11-22T19:59:18.160Z,51.83
2017-11-22T20:01:47.159Z,44.60
2017-11-22T20:04:16.258Z,44.33
2017-11-22T20:06:45.561Z,40.40
2017-11-22T20:09:16.072Z,43.93
2017-11-22T20:11:46.201Z,42.57
2017-11-22T20:14:15.063Z,44.27
2017-11-22T20:16:43.959Z,49.77
2017-11-22T20:19:12.669Z,45.23
2017-11-22T20:21:41.463Z,47.50
2017-11-22T20:24:10.350Z,45.17
2017-11-22T20:26:39.350Z,41.07
2017-11-22T20:29:08.135Z,40.13
2017-11-22T20:31:37.022Z,47.30
2017-11-22T20:34:05.912Z,40.67
2017-11-22T20:36:35.625Z,41.57
2017-11-22T20:39:04.454Z,40.80
2017-11-22T20:41:33.206Z,48.23
2017-11-22T20:44:02.238Z,52.83
2017-11-22T20:46:30.994Z,47.70
2017-11-22T20:49:00.142Z,44.73
2017-11-22T20:51:29.788Z,45.97
2017-11-22T20:53:58.637Z,43.00
2017-11-22T20:56:28.085Z,41.10
2017-11-22T20:58:57.041Z,41.47
2017-11-22T21:01:26.073Z,40.47
2017-11-22T21:03:55.218Z,38.37
2017-11-22T21:06:23.951Z,42.90
2017-11-22T21:08:52.907Z,39.10
2017-11-22T21:11:23.072Z,45.90
2017-11-22T21:13:51.960Z,40.97
2017-11-22T21:16:21.181Z,41.03
2017-11-22T21:18:50.357Z,49.90
2017-11-22T21:21:20.001Z,44.80
2017-11-22T21:23:48.927Z,41.73
2017-11-22T21:26:17.901Z,38.87
2017-11-22T21:28:46.737Z,44.00
2017-11-22T21:31:15.731Z,38.40
2017-11-22T21:33:46.050Z,41.43
2017-11-22T21:36:15.763Z,48.50
2017-11-22T21:38:44.612Z,36.13
2017-11-22T21:41:13.342Z,44.00
2017-11-22T21:43:42.199Z,39.63
2017-11-22T21:46:10.966Z,40.27
2017-11-22T21:48:39.821Z,40.87
2017-11-22T21:51:09.517Z,39.37
2017-11-22T21:53:38.409Z,41.93
2017-11-22T21:56:07.304Z,41.00
2017-11-22T21:58:36.395Z,34.00
2017-11-22T22:01:05.516Z,37.40
2017-11-22T22:03:34.489Z,40.60
2017-11-22T22:06:03.902Z,36.20
2017-11-22T22:08:32.693Z,46.60
2017-11-22T22:11:01.778Z,32.60
2017-11-22T22:13:31.352Z,35.10
2017-11-22T22:16:00.385Z,33.23
2017-11-22T22:18:29.924Z,34.10
2017-11-22T22:20:58.976Z,34.10
2017-11-22T22:23:27.881Z,34.93
2017-11-22T22:25:56.763Z,33.60
2017-11-22T22:28:25.652Z,34.37
2017-11-22T22:30:54.339Z,32.20
2017-11-22T22:33:23.431Z,27.73
2017-11-22T22:35:53.077Z,31.73
2017-11-22T22:38:23.671Z,31.50
2017-11-22T22:40:52.776Z,29.27
2017-11-22T22:43:21.452Z,28.77
2017-11-22T22:45:50.143Z,32.40
2017-11-22T22:48:19.031Z,42.00
2017-11-22T22:50:47.718Z,31.30
2017-11-22T22:53:17.018Z,37.10
2017-11-22T22:55:45.861Z,34.07
2017-11-22T22:58:14.801Z,35.67
2017-11-22T23:00:43.502Z,31.30
2017-11-22T23:03:12.580Z,39.67
2017-11-22T23:05:41.212Z,31.20
2017-11-22T23:08:09.876Z,31.30
2017-11-22T23:10:39.058Z,30.70
2017-11-22T23:13:08.049Z,38.93
2017-11-22T23:15:36.667Z,35.30
2017-11-22T23:18:05.418Z,35.33
2017-11-22T23:20:34.307Z,30.57
2017-11-22T23:23:03.203Z,30.80
2017-11-22T23:25:32.642Z,29.40
2017-11-22T23:28:02.308Z,34.60
2017-11-22T23:30:31.216Z,35.00
2017-11-22T23:33:00.071Z,27.47
2017-11-22T23:35:28.780Z,30.27
2017-11-22T23:37:57.874Z,29.00
2017-11-22T23:40:26.722Z,28.60
2017-11-22T23:42:55.450Z,25.00
2017-11-22T23:45:24.342Z,28.43
2017-11-22T23:47:53.249Z,25.60
2017-11-22T23:50:22.143Z,26.87
2017-11-22T23:52:51.792Z,31.47
2017-11-22T23:55:20.736Z,28.70
2017-11-22T23:57:49.585Z,29.40
